Time;durP1;ratioP1;P1;durP2;ratioP2;P2;SDS_P1;SDS_P2;PMS_P1;PMS_P2;Temp;Humidity;BMP_temperature;BMP_pressure;BME280_temperature;BME280_humidity;BME280_pressure;Samples;Min_cycle;Max_cycle;Signal;HPM_P1;HPM_P2
2022/09/12 00:01:51;;;;;;;11.95;10.63;;;;;;;;;;4994611;28;20130;-83
2022/09/12 00:04:18;;;;;;;10.40;9.40;;;;;;;;;;4979486;28;20493;-83
2022/09/12 00:06:45;;;;;;;10.18;9.00;;;;;;;;;;4979136;28;20448;-84
2022/09/12 00:09:13;;;;;;;9.02;7.82;;;;;;;;;;4998284;28;20572;-85
2022/09/12 00:11:42;;;;;;;8.57;7.68;;;;;;;;;;4981135;28;20141;-84
2022/09/12 00:14:11;;;;;;;8.73;7.82;;;;;;;;;;5009423;28;20082;-84
2022/09/12 00:16:38;;;;;;;8.85;7.47;;;;;;;;;;5012430;28;20094;-84
2022/09/12 00:19:05;;;;;;;7.25;6.65;;;;;;;;;;4980902;28;20473;-83
2022/09/12 00:21:33;;;;;;;8.30;7.53;;;;;;;;;;4975778;28;20494;-83
2022/09/12 00:24:00;;;;;;;8.35;7.32;;;;;;;;;;4992546;28;20058;-83
2022/09/12 00:26:28;;;;;;;7.80;7.10;;;;;;;;;;4993029;28;20046;-83
2022/09/12 00:28:55;;;;;;;7.97;7.28;;;;;;;;;;4993127;28;20060;-84
2022/09/12 00:31:23;;;;;;;8.02;7.22;;;;;;;;;;4992901;28;20493;-84
2022/09/12 00:33:51;;;;;;;8.02;7.32;;;;;;;;;;4975693;28;20082;-84
2022/09/12 00:36:20;;;;;;;7.20;6.50;;;;;;;;;;4975591;28;20046;-84
2022/09/12 00:38:48;;;;;;;7.10;6.40;;;;;;;;;;4992905;28;20042;-84
2022/09/12 00:41:23;;;;;;;8.98;7.40;;;;;;;;;;4992825;28;20518;-84
2022/09/12 00:43:52;;;;;;;8.43;6.82;;;;;;;;;;4992929;28;20046;-83
2022/09/12 00:46:19;;;;;;;7.50;6.80;;;;;;;;;;4975653;28;20050;-84
2022/09/12 00:48:49;;;;;;;7.28;6.57;;;;;;;;;;4992991;28;20046;-83
2022/09/12 00:51:18;;;;;;;9.88;7.03;;;;;;;;;;4975496;28;20480;-83
2022/09/12 00:53:47;;;;;;;7.78;7.00;;;;;;;;;;4992621;28;20056;-83
2022/09/12 00:56:15;;;;;;;7.20;6.50;;;;;;;;;;4975497;28;20085;-84
2022/09/12 00:58:46;;;;;;;7.45;6.80;;;;;;;;;;4977470;28;20050;-84
2022/09/12 01:01:13;;;;;;;7.63;6.93;;;;;;;;;;4996503;28;20053;-83
2022/09/12 01:03:40;;;;;;;6.57;5.97;;;;;;;;;;4979354;28;20051;-83
2022/09/12 01:06:27;;;;;;;10.07;6.97;;;;;;;;;;4996441;28;20046;-84
2022/09/12 01:08:55;;;;;;;7.22;6.53;;;;;;;;;;4979191;28;20064;-83
2022/09/12 01:11:22;;;;;;;7.07;6.47;;;;;;;;;;4979293;28;20076;-84
2022/09/12 01:13:50;;;;;;;7.35;6.60;;;;;;;;;;4996440;28;20421;-84
2022/09/12 01:16:17;;;;;;;7.20;6.60;;;;;;;;;;4996073;28;20050;-84
2022/09/12 01:18:51;;;;;;;6.43;5.82;;;;;;;;;;4978897;28;20054;-83
2022/09/12 01:21:37;;;;;;;7.75;6.95;;;;;;;;;;4978830;28;20050;-83
2022/09/12 01:24:14;;;;;;;7.88;6.25;;;;;;;;;;5036575;22;20145;-83
2022/09/12 01:26:47;;;;;;;6.97;6.28;;;;;;;;;;4998481;28;20129;-84
2022/09/12 01:29:46;;;;;;;6.80;6.20;;;;;;;;;;4980774;28;20406;-84
2022/09/12 01:32:22;;;;;;;6.53;5.93;;;;;;;;;;4939899;28;20050;-84
2022/09/12 01:35:12;;;;;;;7.18;6.47;;;;;;;;;;4984709;28;20047;-83
2022/09/12 01:37:53;;;;;;;7.50;6.80;;;;;;;;;;4947381;28;20082;-85
2022/09/12 01:40:38;;;;;;;7.43;6.32;;;;;;;;;;4984678;28;20054;-85
2022/09/12 01:43:30;;;;;;;7.00;6.28;;;;;;;;;;4984759;28;20415;-85
2022/09/12 01:46:02;;;;;;;7.72;5.97;;;;;;;;;;4985092;28;20407;-85
2022/09/12 01:48:34;;;;;;;6.93;6.22;;;;;;;;;;4985925;28;20073;-85
2022/09/12 01:51:25;;;;;;;6.65;6.05;;;;;;;;;;4980343;28;20081;-84
2022/09/12 01:53:55;;;;;;;7.20;6.50;;;;;;;;;;4969098;28;20492;-83
2022/09/12 01:56:25;;;;;;;7.20;6.45;;;;;;;;;;4996139;28;20085;-84
2022/09/12 01:59:00;;;;;;;8.48;7.05;;;;;;;;;;4978446;28;20675;-85
2022/09/12 02:01:28;;;;;;;8.52;6.72;;;;;;;;;;4978975;28;20046;-83
2022/09/12 02:03:59;;;;;;;8.75;6.90;;;;;;;;;;4978387;28;20056;-84
2022/09/12 02:06:48;;;;;;;10.20;7.25;;;;;;;;;;4979400;28;20077;-85
2022/09/12 02:09:21;;;;;;;9.63;6.22;;;;;;;;;;4981960;28;20074;-85
2022/09/12 02:11:49;;;;;;;5.95;5.45;;;;;;;;;;5000908;28;20050;-84
2022/09/12 02:14:24;;;;;;;6.10;5.60;;;;;;;;;;4983600;28;20058;-85
2022/09/12 02:16:54;;;;;;;8.18;5.90;;;;;;;;;;4983896;28;20478;-85
2022/09/12 02:19:23;;;;;;;6.88;6.18;;;;;;;;;;4984554;28;20093;-86
2022/09/12 02:21:53;;;;;;;6.90;6.20;;;;;;;;;;4980728;28;20056;-83
2022/09/12 02:24:22;;;;;;;7.00;6.40;;;;;;;;;;4978114;28;20137;-83
2022/09/12 02:26:51;;;;;;;6.85;6.18;;;;;;;;;;4995192;28;20492;-84
2022/09/12 02:29:19;;;;;;;7.05;5.97;;;;;;;;;;4978194;28;20470;-84
2022/09/12 02:31:47;;;;;;;7.05;6.05;;;;;;;;;;4978024;28;20442;-84
2022/09/12 02:34:23;;;;;;;6.38;5.75;;;;;;;;;;4995156;28;20479;-84
2022/09/12 02:37:02;;;;;;;6.65;6.03;;;;;;;;;;4977863;28;20068;-84
2022/09/12 02:39:29;;;;;;;7.85;5.85;;;;;;;;;;4978205;28;20058;-84
2022/09/12 02:41:58;;;;;;;6.47;5.88;;;;;;;;;;4977883;28;20050;-84
2022/09/12 02:44:26;;;;;;;7.47;6.05;;;;;;;;;;4978028;28;20050;-84
2022/09/12 02:46:55;;;;;;;6.70;5.82;;;;;;;;;;4977455;28;20492;-84
2022/09/12 02:49:22;;;;;;;8.13;6.55;;;;;;;;;;4977900;28;20385;-84
2022/09/12 02:51:50;;;;;;;6.95;6.25;;;;;;;;;;4977733;28;20607;-84
2022/09/12 02:54:17;;;;;;;8.18;6.55;;;;;;;;;;4977708;28;20137;-84
2022/09/12 02:56:45;;;;;;;18.67;9.07;;;;;;;;;;4977477;28;20060;-84
2022/09/12 02:59:15;;;;;;;8.07;6.32;;;;;;;;;;4994535;28;20137;-84
2022/09/12 03:01:50;;;;;;;10.32;6.90;;;;;;;;;;4977303;28;20054;-84
2022/09/12 03:04:36;;;;;;;8.18;7.28;;;;;;;;;;4977462;28;20081;-83
2022/09/12 03:07:09;;;;;;;22.42;19.95;;;;;;;;;;4979095;28;20058;-84
2022/09/12 03:09:40;;;;;;;16.92;15.13;;;;;;;;;;4981925;28;20132;-85
2022/09/12 03:12:10;;;;;;;9.63;8.23;;;;;;;;;;4980944;28;20050;-84
2022/09/12 03:14:48;;;;;;;11.40;7.97;;;;;;;;;;4982964;28;20050;-85
2022/09/12 03:17:31;;;;;;;8.93;7.97;;;;;;;;;;4982721;28;20073;-85
2022/09/12 03:20:08;;;;;;;9.95;6.97;;;;;;;;;;4982945;28;20153;-84
2022/09/12 03:22:35;;;;;;;6.55;5.93;;;;;;;;;;4981342;28;20048;-85
2022/09/12 03:25:05;;;;;;;8.32;7.53;;;;;;;;;;4982677;28;20078;-86
2022/09/12 03:27:41;;;;;;;10.88;9.13;;;;;;;;;;4981191;28;20054;-85
2022/09/12 03:30:09;;;;;;;16.73;12.98;;;;;;;;;;4982875;28;20054;-85
2022/09/12 03:32:47;;;;;;;16.85;14.55;;;;;;;;;;4982244;28;20056;-84
2022/09/12 03:35:16;;;;;;;20.33;15.15;;;;;;;;;;4982401;28;20133;-85
2022/09/12 03:37:49;;;;;;;13.70;10.18;;;;;;;;;;4982199;28;20054;-83
2022/09/12 03:40:16;;;;;;;7.82;7.13;;;;;;;;;;4980609;28;20144;-83
2022/09/12 03:42:44;;;;;;;8.40;7.55;;;;;;;;;;4995962;28;20129;-84
2022/09/12 03:45:11;;;;;;;6.45;5.95;;;;;;;;;;4978553;28;20046;-84
2022/09/12 03:47:39;;;;;;;8.02;6.25;;;;;;;;;;4981435;28;20112;-84
2022/09/12 03:50:07;;;;;;;6.90;6.30;;;;;;;;;;4981770;28;20055;-84
2022/09/12 03:52:34;;;;;;;6.93;6.32;;;;;;;;;;4983898;28;20058;-85
2022/09/12 03:55:01;;;;;;;6.25;5.75;;;;;;;;;;4998841;28;20084;-85
2022/09/12 03:57:29;;;;;;;6.53;5.90;;;;;;;;;;4982202;28;20085;-83
2022/09/12 03:59:56;;;;;;;6.65;5.40;;;;;;;;;;4982297;28;20129;-85
2022/09/12 04:02:23;;;;;;;6.15;5.55;;;;;;;;;;4998889;28;20137;-84
2022/09/12 04:04:50;;;;;;;6.22;5.63;;;;;;;;;;4999013;28;20050;-85
2022/09/12 04:07:18;;;;;;;5.50;5.05;;;;;;;;;;4982905;28;20050;-85
2022/09/12 04:09:45;;;;;;;4.80;4.43;;;;;;;;;;4980674;28;20089;-85
2022/09/12 04:12:12;;;;;;;8.15;5.32;;;;;;;;;;4981310;28;20112;-85
2022/09/12 04:14:40;;;;;;;6.80;5.55;;;;;;;;;;4998496;28;20050;-85
2022/09/12 04:17:08;;;;;;;7.45;5.35;;;;;;;;;;4981131;28;20047;-86
2022/09/12 04:19:35;;;;;;;6.78;5.43;;;;;;;;;;4982658;28;20046;-84
2022/09/12 04:22:02;;;;;;;5.75;5.25;;;;;;;;;;4981059;28;20110;-85
2022/09/12 04:24:29;;;;;;;5.72;5.10;;;;;;;;;;4981625;28;20089;-85
2022/09/12 04:26:57;;;;;;;6.35;5.75;;;;;;;;;;4998905;28;20389;-85
2022/09/12 04:29:24;;;;;;;6.15;5.55;;;;;;;;;;4981846;28;20082;-85
2022/09/12 04:31:51;;;;;;;5.90;5.38;;;;;;;;;;4982628;28;20130;-84
2022/09/12 04:34:18;;;;;;;11.45;6.47;;;;;;;;;;4984918;28;20054;-84
2022/09/12 04:36:46;;;;;;;13.48;6.00;;;;;;;;;;4984984;28;20133;-85
2022/09/12 04:39:13;;;;;;;8.73;5.40;;;;;;;;;;4980019;28;20471;-83
2022/09/12 04:41:40;;;;;;;9.77;5.47;;;;;;;;;;4979989;28;20507;-84
2022/09/12 04:44:10;;;;;;;5.72;5.10;;;;;;;;;;4980424;28;20133;-83
2022/09/12 04:46:39;;;;;;;5.43;4.93;;;;;;;;;;4980668;28;20054;-85
2022/09/12 04:49:06;;;;;;;5.85;5.30;;;;;;;;;;4999090;28;20050;-84
2022/09/12 04:51:34;;;;;;;10.88;5.68;;;;;;;;;;4982522;28;20100;-84
2022/09/12 04:54:03;;;;;;;5.63;5.10;;;;;;;;;;4981002;28;20145;-85
2022/09/12 04:56:33;;;;;;;5.57;4.53;;;;;;;;;;4981107;28;20051;-84
2022/09/12 04:59:00;;;;;;;6.72;4.65;;;;;;;;;;4980643;28;20054;-84
2022/09/12 05:01:29;;;;;;;5.43;5.03;;;;;;;;;;4980425;28;20134;-84
2022/09/12 05:03:58;;;;;;;6.93;4.82;;;;;;;;;;4980654;28;20467;-84
2022/09/12 05:06:30;;;;;;;5.32;4.90;;;;;;;;;;4981595;28;20085;-84
2022/09/12 05:08:58;;;;;;;5.20;4.70;;;;;;;;;;4980886;28;20056;-84
2022/09/12 05:11:26;;;;;;;5.68;4.85;;;;;;;;;;4999427;28;20129;-85
2022/09/12 05:14:14;;;;;;;5.78;4.97;;;;;;;;;;4983510;28;20384;-85
2022/09/12 05:16:41;;;;;;;5.15;4.65;;;;;;;;;;4997730;28;20074;-85
2022/09/12 05:19:14;;;;;;;6.25;5.15;;;;;;;;;;4981229;28;20046;-84
2022/09/12 05:21:41;;;;;;;6.65;5.22;;;;;;;;;;4980489;28;20076;-85
2022/09/12 05:24:10;;;;;;;6.13;5.53;;;;;;;;;;4997544;28;20574;-84
2022/09/12 05:26:37;;;;;;;5.60;5.10;;;;;;;;;;4998055;28;20579;-84
2022/09/12 05:29:05;;;;;;;5.13;4.63;;;;;;;;;;4980426;28;20058;-85
2022/09/12 05:31:33;;;;;;;5.50;4.93;;;;;;;;;;4998697;28;20396;-84
2022/09/12 05:34:03;;;;;;;6.03;5.25;;;;;;;;;;4981012;28;20139;-85
2022/09/12 05:36:30;;;;;;;6.75;4.65;;;;;;;;;;4980160;28;20141;-85
2022/09/12 05:38:59;;;;;;;6.28;5.47;;;;;;;;;;4980256;28;20492;-84
2022/09/12 05:41:30;;;;;;;5.97;5.35;;;;;;;;;;4982079;28;20133;-85
2022/09/12 05:43:58;;;;;;;5.72;5.05;;;;;;;;;;4982754;28;20061;-85
2022/09/12 05:46:27;;;;;;;5.22;4.72;;;;;;;;;;4982207;28;20046;-85
2022/09/12 05:48:55;;;;;;;6.78;4.80;;;;;;;;;;4979502;28;20060;-86
2022/09/12 05:51:24;;;;;;;6.75;4.85;;;;;;;;;;4979882;28;20053;-84
2022/09/12 05:53:53;;;;;;;4.93;4.53;;;;;;;;;;4978939;28;20129;-85
2022/09/12 05:56:22;;;;;;;4.60;4.20;;;;;;;;;;4978618;28;20125;-84
2022/09/12 05:58:54;;;;;;;5.38;4.85;;;;;;;;;;4978950;28;20466;-84
2022/09/12 06:01:22;;;;;;;6.45;4.70;;;;;;;;;;4979426;28;20046;-84
2022/09/12 06:03:50;;;;;;;6.82;5.25;;;;;;;;;;4995930;28;20477;-84
2022/09/12 06:06:20;;;;;;;5.55;5.05;;;;;;;;;;4995985;28;20496;-83
2022/09/12 06:08:48;;;;;;;7.95;5.78;;;;;;;;;;4980084;28;20081;-84
2022/09/12 06:11:21;;;;;;;8.80;5.65;;;;;;;;;;4997655;28;20108;-84
2022/09/12 06:13:49;;;;;;;5.40;4.90;;;;;;;;;;4979451;28;20556;-84
2022/09/12 06:16:18;;;;;;;14.63;5.20;;;;;;;;;;4978683;28;20129;-84
2022/09/12 06:18:47;;;;;;;6.03;5.43;;;;;;;;;;4978816;28;20052;-84
2022/09/12 06:21:14;;;;;;;5.78;5.20;;;;;;;;;;4980429;28;20389;-84
2022/09/12 06:23:43;;;;;;;4.97;4.50;;;;;;;;;;4981616;28;20046;-85
2022/09/12 06:26:10;;;;;;;7.82;4.93;;;;;;;;;;4982630;28;20504;-86
2022/09/12 06:28:39;;;;;;;10.45;4.90;;;;;;;;;;4981404;28;20118;-85
2022/09/12 06:31:10;;;;;;;5.15;4.57;;;;;;;;;;4984096;28;20138;-84
2022/09/12 06:33:39;;;;;;;5.40;4.90;;;;;;;;;;4984919;28;20070;-84
2022/09/12 06:36:08;;;;;;;4.65;4.28;;;;;;;;;;4983119;28;20058;-84
2022/09/12 06:38:39;;;;;;;5.25;4.72;;;;;;;;;;4974689;28;20050;-84
2022/09/12 06:41:08;;;;;;;5.03;4.63;;;;;;;;;;4974415;28;20349;-84
2022/09/12 06:43:35;;;;;;;5.25;4.78;;;;;;;;;;4974751;28;20047;-84
2022/09/12 06:46:03;;;;;;;5.07;4.68;;;;;;;;;;4976318;28;20050;-83
2022/09/12 06:48:31;;;;;;;4.60;4.25;;;;;;;;;;4977119;28;20051;-85
2022/09/12 06:51:03;;;;;;;4.50;4.15;;;;;;;;;;4975345;28;20050;-85
2022/09/12 06:53:32;;;;;;;5.35;4.85;;;;;;;;;;4975330;28;20133;-84
2022/09/12 06:56:05;;;;;;;5.78;4.97;;;;;;;;;;4973932;28;20089;-84
2022/09/12 06:58:33;;;;;;;8.07;5.20;;;;;;;;;;4976728;28;20133;-84
2022/09/12 07:01:02;;;;;;;13.95;7.05;;;;;;;;;;4975162;28;20105;-85
2022/09/12 07:03:29;;;;;;;23.70;8.60;;;;;;;;;;4976123;28;20051;-84
2022/09/12 07:05:57;;;;;;;16.05;7.97;;;;;;;;;;4975445;28;20078;-84
2022/09/12 07:08:24;;;;;;;20.85;9.65;;;;;;;;;;4975035;28;20129;-84
2022/09/12 07:10:51;;;;;;;13.43;7.13;;;;;;;;;;4973995;28;20047;-85
2022/09/12 07:13:19;;;;;;;13.18;8.05;;;;;;;;;;4974199;28;20055;-85
2022/09/12 07:15:46;;;;;;;11.45;7.72;;;;;;;;;;4975309;28;20051;-85
2022/09/12 07:18:13;;;;;;;9.68;6.93;;;;;;;;;;4975398;28;20047;-85
2022/09/12 07:20:41;;;;;;;20.38;8.38;;;;;;;;;;4975455;28;20169;-84
2022/09/12 07:23:08;;;;;;;15.98;7.30;;;;;;;;;;5008079;23;20088;-86
2022/09/12 07:25:36;;;;;;;16.40;8.13;;;;;;;;;;5032422;28;20137;-86
2022/09/12 07:28:03;;;;;;;7.15;5.70;;;;;;;;;;5032167;28;20049;-87
2022/09/12 07:30:30;;;;;;;11.82;5.93;;;;;;;;;;5032394;28;20486;-86
2022/09/12 07:32:58;;;;;;;4.53;3.95;;;;;;;;;;5032362;28;20136;-86
2022/09/12 07:35:25;;;;;;;5.00;4.18;;;;;;;;;;5032558;28;20053;-86
2022/09/12 07:37:52;;;;;;;4.30;3.90;;;;;;;;;;5032151;28;20085;-85
2022/09/12 07:40:20;;;;;;;5.13;4.00;;;;;;;;;;5032344;28;20051;-86
2022/09/12 07:42:48;;;;;;;3.97;3.67;;;;;;;;;;5032044;28;20068;-86
2022/09/12 07:45:15;;;;;;;4.93;3.50;;;;;;;;;;5032099;28;20405;-87
2022/09/12 07:47:43;;;;;;;5.07;3.63;;;;;;;;;;5032162;28;20095;-86
2022/09/12 07:50:10;;;;;;;8.90;4.43;;;;;;;;;;5031889;28;20409;-86
2022/09/12 07:52:37;;;;;;;7.95;3.78;;;;;;;;;;5032040;28;20482;-86
2022/09/12 07:55:05;;;;;;;8.70;3.72;;;;;;;;;;5031938;28;20527;-86
2022/09/12 07:57:32;;;;;;;4.65;2.85;;;;;;;;;;5032994;28;20049;-86
2022/09/12 07:59:59;;;;;;;2.70;2.50;;;;;;;;;;5031850;28;20050;-87
2022/09/12 08:02:26;;;;;;;3.03;2.30;;;;;;;;;;5031683;28;20514;-86
2022/09/12 08:04:53;;;;;;;2.35;2.13;;;;;;;;;;5031935;28;20053;-86
2022/09/12 08:07:21;;;;;;;2.33;2.20;;;;;;;;;;5031256;28;20482;-86
2022/09/12 08:09:48;;;;;;;3.55;2.03;;;;;;;;;;5032866;28;20109;-86
2022/09/12 08:12:16;;;;;;;3.60;2.55;;;;;;;;;;5031836;28;20049;-85
2022/09/12 08:14:43;;;;;;;6.55;2.60;;;;;;;;;;5031797;28;20045;-88
2022/09/12 08:17:11;;;;;;;5.95;2.90;;;;;;;;;;5031495;28;20477;-86
2022/09/12 08:19:38;;;;;;;21.10;5.80;;;;;;;;;;5031593;28;20140;-85
2022/09/12 08:22:05;;;;;;;22.73;6.10;;;;;;;;;;5031432;28;20577;-85
2022/09/12 08:24:32;;;;;;;35.08;10.90;;;;;;;;;;5031430;28;20049;-85
2022/09/12 08:26:59;;;;;;;11.73;4.60;;;;;;;;;;5032112;28;20088;-85
2022/09/12 08:29:27;;;;;;;21.48;6.13;;;;;;;;;;5032063;28;20416;-83
2022/09/12 08:31:54;;;;;;;18.63;6.15;;;;;;;;;;5031415;28;20542;-84
2022/09/12 08:34:23;;;;;;;22.27;7.18;;;;;;;;;;5031432;28;20053;-83
2022/09/12 08:36:54;;;;;;;14.82;4.20;;;;;;;;;;5031523;28;20391;-83
2022/09/12 08:39:21;;;;;;;15.75;4.68;;;;;;;;;;5032109;28;20054;-84
2022/09/12 08:41:55;;;;;;;16.02;4.82;;;;;;;;;;5031516;28;20076;-86
2022/09/12 08:44:22;;;;;;;;;;;;;;;;;;5032093;28;20073;-85
2022/09/12 08:46:52;;;;;;;7.32;3.28;;;;;;;;;;5031744;28;20020;-82
2022/09/12 08:49:33;;;;;;;10.55;3.90;;;;;;;;;;5033100;28;20140;-83
2022/09/12 08:52:04;;;;;;;8.45;3.92;;;;;;;;;;5033451;28;20168;-84
2022/09/12 08:54:32;;;;;;;7.93;4.13;;;;;;;;;;5031941;28;20048;-82
2022/09/12 08:57:04;;;;;;;8.82;3.15;;;;;;;;;;5031663;28;20051;-82
2022/09/12 08:59:36;;;;;;;6.68;3.08;;;;;;;;;;5031503;28;20103;-83
2022/09/12 09:02:05;;;;;;;8.80;2.97;;;;;;;;;;5031457;28;20072;-83
2022/09/12 09:04:52;;;;;;;6.28;2.90;;;;;;;;;;5031978;28;20419;-83
2022/09/12 09:07:19;;;;;;;3.63;3.17;;;;;;;;;;5031355;28;20507;-82
2022/09/12 09:09:55;;;;;;;5.03;3.00;;;;;;;;;;5031983;28;20049;-82
2022/09/12 09:12:35;;;;;;;3.42;3.15;;;;;;;;;;5031501;28;20049;-83
2022/09/12 09:15:11;;;;;;;7.20;3.25;;;;;;;;;;5031643;28;20123;-84
2022/09/12 09:17:40;;;;;;;3.40;3.10;;;;;;;;;;5031280;28;20041;-83
2022/09/12 09:20:17;;;;;;;3.22;2.83;;;;;;;;;;5033711;28;20049;-82
2022/09/12 09:22:48;;;;;;;2.88;2.67;;;;;;;;;;5037092;28;21115;-85
2022/09/12 09:25:24;;;;;;;3.15;2.95;;;;;;;;;;5035920;28;20080;-85
2022/09/12 09:27:58;;;;;;;5.75;2.90;;;;;;;;;;5035747;28;20132;-84
2022/09/12 09:30:25;;;;;;;2.70;2.45;;;;;;;;;;5035896;28;20067;-84
2022/09/12 09:32:55;;;;;;;2.63;2.53;;;;;;;;;;5036215;28;20502;-83
2022/09/12 09:35:25;;;;;;;2.50;2.30;;;;;;;;;;5035451;28;20053;-86
2022/09/12 09:38:07;;;;;;;4.28;2.63;;;;;;;;;;5035904;28;20053;-87
2022/09/12 09:40:50;;;;;;;2.30;2.20;;;;;;;;;;5034851;28;20140;-85
2022/09/12 09:43:26;;;;;;;2.20;2.00;;;;;;;;;;5036538;28;20051;-85
2022/09/12 09:45:53;;;;;;;2.58;2.30;;;;;;;;;;5035737;28;20104;-86
2022/09/12 09:48:21;;;;;;;1.98;1.88;;;;;;;;;;5035478;28;20145;-86
2022/09/12 09:50:49;;;;;;;2.28;2.08;;;;;;;;;;5036223;28;20111;-84
2022/09/12 09:53:23;;;;;;;1.70;1.60;;;;;;;;;;5036375;28;20049;-84
2022/09/12 09:55:52;;;;;;;1.80;1.48;;;;;;;;;;5036152;28;20495;-83
2022/09/12 09:58:29;;;;;;;1.40;1.30;;;;;;;;;;5035765;28;20477;-83
2022/09/12 10:01:01;;;;;;;2.42;1.80;;;;;;;;;;5035759;28;20050;-83
2022/09/12 10:03:34;;;;;;;3.15;1.40;;;;;;;;;;5035625;28;20049;-84
2022/09/12 10:06:06;;;;;;;2.47;1.50;;;;;;;;;;5052062;28;20049;-82
2022/09/12 10:08:35;;;;;;;1.88;1.30;;;;;;;;;;5049986;28;20056;-85
2022/09/12 10:11:07;;;;;;;1.50;1.40;;;;;;;;;;5034043;28;20053;-87
2022/09/12 10:13:37;;;;;;;1.15;1.02;;;;;;;;;;5034156;28;20248;-84
2022/09/12 10:16:07;;;;;;;1.50;1.40;;;;;;;;;;5033797;28;20103;-86
2022/09/12 10:18:41;;;;;;;1.95;1.30;;;;;;;;;;5033724;28;20056;-84
2022/09/12 10:21:17;;;;;;;0.90;0.90;;;;;;;;;;5034491;28;20053;-87
2022/09/12 10:23:46;;;;;;;1.10;1.10;;;;;;;;;;5033417;28;20045;-83
2022/09/12 10:26:14;;;;;;;2.13;1.20;;;;;;;;;;5034163;28;20482;-83
2022/09/12 10:28:47;;;;;;;1.17;1.13;;;;;;;;;;5033205;28;20081;-86
2022/09/12 10:31:15;;;;;;;11.20;2.07;;;;;;;;;;5034696;28;20473;-83
2022/09/12 10:33:45;;;;;;;1.20;1.17;;;;;;;;;;5033938;28;20549;-83
2022/09/12 10:36:14;;;;;;;1.35;1.35;;;;;;;;;;5033269;28;20123;-85
2022/09/12 10:38:48;;;;;;;2.10;1.50;;;;;;;;;;5033689;28;20069;-83
2022/09/12 10:41:15;;;;;;;1.88;1.17;;;;;;;;;;5033469;28;20079;-83
2022/09/12 10:43:43;;;;;;;1.50;1.40;;;;;;;;;;5033226;28;20410;-82
2022/09/12 10:46:19;;;;;;;2.72;1.80;;;;;;;;;;5033252;28;20415;-86
2022/09/12 10:48:47;;;;;;;1.77;1.50;;;;;;;;;;5033851;28;20491;-85
2022/09/12 10:51:26;;;;;;;1.17;1.08;;;;;;;;;;5033110;28;20049;-83
2022/09/12 10:53:58;;;;;;;2.40;1.50;;;;;;;;;;5032758;28;20601;-87
2022/09/12 10:56:52;;;;;;;1.08;0.90;;;;;;;;;;5032823;28;20136;-85
2022/09/12 10:59:25;;;;;;;2.30;1.30;;;;;;;;;;5029920;28;20136;-87
2022/09/12 11:02:00;;;;;;;1.95;1.25;;;;;;;;;;5032595;28;20049;-83
2022/09/12 11:04:30;;;;;;;1.55;0.98;;;;;;;;;;5032658;28;20045;-83
2022/09/12 11:06:58;;;;;;;1.48;1.17;;;;;;;;;;5032747;28;20132;-85
2022/09/12 11:09:25;;;;;;;1.17;1.08;;;;;;;;;;5033137;28;20152;-85
2022/09/12 11:11:58;;;;;;;2.38;1.20;;;;;;;;;;5032508;28;20133;-84
2022/09/12 11:14:25;;;;;;;1.05;0.70;;;;;;;;;;5032583;28;20069;-83
2022/09/12 11:17:16;;;;;;;2.20;1.10;;;;;;;;;;5032510;28;20059;-83
2022/09/12 11:20:03;;;;;;;2.60;0.95;;;;;;;;;;5026495;28;20060;-83
2022/09/12 11:22:35;;;;;;;2.45;0.90;;;;;;;;;;4993058;28;20059;-85
2022/09/12 11:25:12;;;;;;;2.15;1.52;;;;;;;;;;5032189;28;20050;-87
2022/09/12 11:27:55;;;;;;;1.50;1.35;;;;;;;;;;5032318;28;20067;-85
2022/09/12 11:30:22;;;;;;;1.33;1.13;;;;;;;;;;5032401;28;20128;-84
2022/09/12 11:33:07;;;;;;;1.25;1.10;;;;;;;;;;5032202;28;20049;-85
2022/09/12 11:35:43;;;;;;;1.98;1.23;;;;;;;;;;5032141;28;20048;-85
2022/09/12 11:38:29;;;;;;;3.45;1.70;;;;;;;;;;5032280;28;20140;-85
2022/09/12 11:40:58;;;;;;;2.45;1.30;;;;;;;;;;5032330;28;20041;-87
2022/09/12 11:43:40;;;;;;;1.95;1.20;;;;;;;;;;5032250;28;20140;-85
2022/09/12 11:46:15;;;;;;;3.72;1.30;;;;;;;;;;5035254;28;20045;-83
2022/09/12 11:48:56;;;;;;;2.53;0.88;;;;;;;;;;5034682;28;20522;-84
2022/09/12 11:51:26;;;;;;;1.50;1.20;;;;;;;;;;5036586;28;20052;-85
2022/09/12 11:53:59;;;;;;;2.05;1.30;;;;;;;;;;5032128;28;20495;-84
2022/09/12 11:56:26;;;;;;;1.45;1.20;;;;;;;;;;5034086;28;20517;-85
2022/09/12 11:59:02;;;;;;;2.97;1.50;;;;;;;;;;5032958;28;20053;-84
2022/09/12 12:01:37;;;;;;;5.40;1.60;;;;;;;;;;5032474;28;20128;-85
2022/09/12 12:04:11;;;;;;;1.73;1.27;;;;;;;;;;5033203;28;20099;-85
2022/09/12 12:06:59;;;;;;;1.73;1.40;;;;;;;;;;5031932;28;20081;-86
2022/09/12 12:09:26;;;;;;;3.15;1.70;;;;;;;;;;5019516;28;20077;-85
2022/09/12 12:11:56;;;;;;;2.42;1.40;;;;;;;;;;5032753;28;20144;-86
2022/09/12 12:14:26;;;;;;;1.50;1.40;;;;;;;;;;5032270;28;20049;-86
2022/09/12 12:16:53;;;;;;;1.95;1.50;;;;;;;;;;5032583;28;20467;-85
2022/09/12 12:19:34;;;;;;;1.17;1.15;;;;;;;;;;5031860;28;20049;-84
2022/09/12 12:22:15;;;;;;;1.10;1.00;;;;;;;;;;5033161;28;20054;-85
2022/09/12 12:25:01;;;;;;;2.78;1.30;;;;;;;;;;5033242;28;20049;-86
2022/09/12 12:27:52;;;;;;;1.25;1.20;;;;;;;;;;5033598;28;20587;-84
2022/09/12 12:30:28;;;;;;;1.20;1.20;;;;;;;;;;5024465;28;20049;-85
2022/09/12 12:32:59;;;;;;;1.40;1.30;;;;;;;;;;5032687;28;20136;-84
2022/09/12 12:35:46;;;;;;;2.13;1.40;;;;;;;;;;5031644;28;20133;-84
2022/09/12 12:38:34;;;;;;;3.28;1.30;;;;;;;;;;4993054;28;20148;-84
2022/09/12 12:41:16;;;;;;;2.03;1.17;;;;;;;;;;5034381;28;20054;-85
2022/09/12 12:43:44;;;;;;;4.68;1.23;;;;;;;;;;5033394;28;20154;-85
2022/09/12 12:46:13;;;;;;;1.27;1.15;;;;;;;;;;5034926;28;20042;-85
2022/09/12 12:48:59;;;;;;;1.52;1.10;;;;;;;;;;5035277;28;20136;-84
2022/09/12 12:51:35;;;;;;;2.05;1.20;;;;;;;;;;5034655;28;20081;-82
2022/09/12 12:54:04;;;;;;;1.85;1.05;;;;;;;;;;5033051;28;20513;-83
2022/09/12 12:56:39;;;;;;;3.20;1.20;;;;;;;;;;5036585;28;20045;-84
2022/09/12 12:59:20;;;;;;;1.15;1.00;;;;;;;;;;5036693;28;20052;-82
2022/09/12 13:01:53;;;;;;;0.85;0.85;;;;;;;;;;5036477;28;20049;-82
2022/09/12 13:04:23;;;;;;;5.18;1.20;;;;;;;;;;5036840;28;20152;-83
2022/09/12 13:06:59;;;;;;;2.83;1.40;;;;;;;;;;5036578;28;20053;-82
2022/09/12 13:09:33;;;;;;;2.40;1.17;;;;;;;;;;5037009;28;20406;-83
2022/09/12 13:12:06;;;;;;;5.30;1.40;;;;;;;;;;5036802;28;20049;-84
2022/09/12 13:14:46;;;;;;;3.35;1.33;;;;;;;;;;5036125;28;20087;-83
2022/09/12 13:17:24;;;;;;;1.52;1.17;;;;;;;;;;5034947;28;20081;-82
2022/09/12 13:19:53;;;;;;;2.55;0.93;;;;;;;;;;5035048;28;20057;-85
2022/09/12 13:22:52;;;;;;;2.65;0.93;;;;;;;;;;5036359;28;20083;-85
2022/09/12 13:25:20;;;;;;;1.27;1.00;;;;;;;;;;5032026;28;20038;-79
2022/09/12 13:28:01;;;;;;;3.08;1.05;;;;;;;;;;5020116;28;20062;-81
2022/09/12 13:30:31;;;;;;;1.08;1.05;;;;;;;;;;5020838;28;20098;-81
2022/09/12 13:33:05;;;;;;;1.13;0.93;;;;;;;;;;5019886;28;20135;-81
2022/09/12 13:35:40;;;;;;;2.47;1.10;;;;;;;;;;5020957;28;20072;-81
2022/09/12 13:38:10;;;;;;;1.00;1.00;;;;;;;;;;5005467;28;20134;-81
2022/09/12 13:40:41;;;;;;;1.15;1.10;;;;;;;;;;4996049;28;20046;-81
2022/09/12 13:43:14;;;;;;;0.98;0.98;;;;;;;;;;4994966;28;20046;-82
2022/09/12 13:45:41;;;;;;;1.50;1.00;;;;;;;;;;4995742;28;20051;-84
2022/09/12 13:48:18;;;;;;;3.67;1.23;;;;;;;;;;4995177;28;20062;-82
2022/09/12 13:50:51;;;;;;;2.47;1.08;;;;;;;;;;4994158;28;20053;-82
2022/09/12 13:53:21;;;;;;;2.57;1.13;;;;;;;;;;4993494;28;20056;-82
2022/09/12 13:55:50;;;;;;;1.13;0.85;;;;;;;;;;4993529;28;20050;-82
2022/09/12 13:58:26;;;;;;;3.28;1.30;;;;;;;;;;4996132;28;20054;-82
2022/09/12 14:01:04;;;;;;;1.38;1.27;;;;;;;;;;4995679;28;20490;-83
2022/09/12 14:06:25;;;;;;;1.33;1.20;;;;;;;;;;4995793;28;20509;-82
2022/09/12 14:08:53;;;;;;;1.50;1.40;;;;;;;;;;4995984;28;20133;-82
2022/09/12 14:11:23;;;;;;;1.33;1.25;;;;;;;;;;4994810;28;20053;-82
2022/09/12 14:13:51;;;;;;;1.45;1.35;;;;;;;;;;4995411;28;20057;-84
2022/09/12 14:16:22;;;;;;;2.60;1.20;;;;;;;;;;4995580;28;20082;-82
2022/09/12 14:18:53;;;;;;;1.45;1.30;;;;;;;;;;4996022;28;20055;-83
2022/09/12 14:21:34;;;;;;;1.33;1.23;;;;;;;;;;4995587;28;20050;-82
2022/09/12 14:24:03;;;;;;;0.90;0.90;;;;;;;;;;4994874;28;20054;-82
2022/09/12 14:26:34;;;;;;;1.42;1.20;;;;;;;;;;4995170;28;20046;-82
2022/09/12 14:29:04;;;;;;;1.30;1.17;;;;;;;;;;4993869;28;20060;-82
2022/09/12 14:31:33;;;;;;;1.75;1.20;;;;;;;;;;4995055;28;20399;-82
2022/09/12 14:34:13;;;;;;;1.52;1.38;;;;;;;;;;4994559;28;20058;-82
2022/09/12 14:36:55;;;;;;;1.40;1.38;;;;;;;;;;4995451;28;20050;-82
2022/09/12 14:39:42;;;;;;;2.35;1.30;;;;;;;;;;5012918;28;20054;-82
2022/09/12 14:42:15;;;;;;;1.42;1.33;;;;;;;;;;5011515;28;20081;-83
2022/09/12 14:44:50;;;;;;;3.08;1.98;;;;;;;;;;5001089;28;20043;-83
2022/09/12 14:47:20;;;;;;;1.33;1.23;;;;;;;;;;5001015;28;20073;-83
2022/09/12 14:49:48;;;;;;;2.00;1.60;;;;;;;;;;5001316;28;20064;-83
2022/09/12 14:52:27;;;;;;;1.27;1.17;;;;;;;;;;4999797;28;20046;-82
2022/09/12 14:54:59;;;;;;;1.50;1.40;;;;;;;;;;4999619;28;20054;-83
2022/09/12 14:57:34;;;;;;;1.40;1.30;;;;;;;;;;4998679;28;20054;-84
2022/09/12 15:00:13;;;;;;;1.23;1.13;;;;;;;;;;4998171;28;20153;-82
2022/09/12 15:02:41;;;;;;;1.45;1.15;;;;;;;;;;4999032;28;20429;-82
2022/09/12 15:05:09;;;;;;;2.13;1.30;;;;;;;;;;5000734;28;20052;-83
2022/09/12 15:07:41;;;;;;;2.33;1.20;;;;;;;;;;4999101;28;20490;-82
2022/09/12 15:10:15;;;;;;;2.08;1.52;;;;;;;;;;4998005;28;20050;-83